Time;durP1;ratioP1;P1;durP2;ratioP2;P2;SDS_P1;SDS_P2;PMS_P1;PMS_P2;Temp;Humidity;BMP_temperature;BMP_pressure;BME280_temperature;BME280_humidity;BME280_pressure;Samples;Min_cycle;Max_cycle;Signal;HPM_P1;HPM_P2
2022/09/17 00:01:16;;;;;;;7.55;2.10;;;14.30;99.90;;;-147.18;100.00;67318.16;4990110;28;20053;-79
2022/09/17 00:04:42;;;;;;;11.13;2.42;;;14.30;99.90;;;-147.18;100.00;67318.16;4997672;28;20050;-79
2022/09/17 00:08:09;;;;;;;14.88;2.63;;;14.30;99.90;;;-147.18;100.00;67318.16;5009300;28;20120;-79
2022/09/17 00:11:38;;;;;;;13.90;2.58;;;14.30;99.90;;;-147.18;100.00;67318.16;5009518;28;20041;-79
2022/09/17 00:15:06;;;;;;;10.30;2.13;;;14.30;99.90;;;-147.18;100.00;67318.16;4992435;28;20426;-79
2022/09/17 00:18:35;;;;;;;10.70;2.22;;;14.30;99.90;;;-147.18;100.00;67318.16;5009072;28;20046;-79
2022/09/17 00:22:01;;;;;;;8.30;2.25;;;14.30;99.90;;;-147.18;100.00;67318.16;5009424;28;20078;-79
2022/09/17 00:25:28;;;;;;;10.40;2.17;;;14.30;99.90;;;-147.18;100.00;67318.16;4999885;28;20049;-79
2022/09/17 00:28:54;;;;;;;9.85;1.90;;;14.30;99.90;;;-147.18;100.00;67318.16;5009149;28;20038;-79
2022/09/17 00:32:22;;;;;;;9.32;2.15;;;14.20;99.90;;;-147.18;100.00;67318.16;5009262;28;20041;-79
2022/09/17 00:35:57;;;;;;;13.55;2.10;;;14.20;99.90;;;-147.18;100.00;67318.16;5000646;28;20134;-79
2022/09/17 00:42:56;;;;;;;14.95;2.50;;;14.20;99.90;;;-147.18;100.00;67318.16;4987493;28;20058;-76
2022/09/17 00:46:25;;;;;;;11.52;2.33;;;14.10;99.90;;;-147.18;100.00;67318.16;4990349;28;20053;-76
2022/09/17 00:49:55;;;;;;;12.35;2.60;;;14.20;99.90;;;-147.18;100.00;67318.16;4993295;28;20057;-76
2022/09/17 00:53:24;;;;;;;13.10;2.42;;;14.20;99.90;;;-147.18;100.00;67318.16;4973522;28;20051;-77
2022/09/17 00:56:53;;;;;;;10.80;2.65;;;14.20;99.90;;;-147.18;100.00;67318.16;4980784;28;20688;-77
2022/09/17 01:00:19;;;;;;;10.30;2.42;;;14.20;99.90;;;-147.18;100.00;67318.16;4954668;29;20051;-76
2022/09/17 01:03:45;;;;;;;13.75;2.65;;;14.10;99.90;;;-147.18;100.00;67318.16;4954416;28;20047;-77
2022/09/17 01:07:28;;;;;;;9.95;1.90;;;14.30;99.90;;;-147.18;100.00;67318.16;4983074;28;20038;-76
2022/09/17 01:11:10;;;;;;;12.95;2.60;;;14.20;99.90;;;-147.18;100.00;67318.16;4993169;28;20038;-77
2022/09/17 01:14:51;;;;;;;11.27;2.60;;;14.20;99.90;;;-147.18;100.00;67318.16;4959827;28;20042;-77
2022/09/17 01:18:35;;;;;;;14.23;2.38;;;14.20;99.90;;;-147.18;100.00;67318.16;4985458;28;20053;-77
2022/09/17 01:22:37;;;;;;;12.73;2.88;;;14.10;99.90;;;-147.18;100.00;67318.16;4959293;28;20113;-76
2022/09/17 01:26:27;;;;;;;12.77;2.85;;;14.10;99.90;;;-147.18;100.00;67318.16;4979896;28;20053;-77
2022/09/17 01:30:11;;;;;;;12.48;2.85;;;14.10;99.90;;;-147.18;100.00;67318.16;4954018;29;20583;-76
2022/09/17 01:33:48;;;;;;;11.43;3.22;;;14.00;99.90;;;-147.18;100.00;67318.16;4970711;28;20114;-76
2022/09/17 01:37:27;;;;;;;10.98;2.60;;;14.00;99.90;;;-147.18;100.00;67318.16;4982941;28;20046;-76
2022/09/17 01:41:05;;;;;;;12.10;3.13;;;14.00;99.90;;;-147.18;100.00;67318.16;4992559;28;20046;-77
2022/09/17 01:44:37;;;;;;;13.93;3.22;;;13.90;99.90;;;-147.18;100.00;67318.16;4958031;28;20110;-77
2022/09/17 01:48:10;;;;;;;;;;;13.90;99.90;;;-147.18;100.00;67318.16;4980204;28;20042;-76
2022/09/17 01:51:39;;;;;;;12.25;3.05;;;13.90;99.90;;;-147.18;100.00;67318.16;4972712;28;20367;-76
2022/09/17 01:55:11;;;;;;;15.65;3.00;;;13.80;99.90;;;-147.18;100.00;67318.16;4973700;28;20062;-76
2022/09/17 01:58:43;;;;;;;18.95;4.03;;;13.90;99.90;;;-147.18;100.00;67318.16;4972310;28;20451;-77
2022/09/17 02:02:13;;;;;;;;;;;13.80;99.90;;;-147.18;100.00;67318.16;4972415;28;20109;-77
2022/09/17 02:05:46;;;;;;;13.40;2.95;;;13.80;99.90;;;-147.18;100.00;67318.16;4994517;28;19926;-77
2022/09/17 02:09:16;;;;;;;12.38;2.72;;;13.90;99.90;;;-147.18;100.00;67318.16;4972578;28;20526;-77
2022/09/17 02:12:46;;;;;;;20.83;3.90;;;13.90;99.90;;;-147.18;100.00;67318.16;4972318;28;20057;-76
2022/09/17 02:16:17;;;;;;;16.85;3.80;;;13.90;99.90;;;-147.18;100.00;67318.16;4981881;28;20047;-77
2022/09/17 02:19:50;;;;;;;16.38;3.17;;;14.00;99.90;;;-147.18;100.00;67318.16;4991788;28;20042;-77
2022/09/17 02:23:24;;;;;;;13.93;3.25;;;14.00;99.90;;;-147.18;100.00;67318.16;4971468;28;20047;-77
2022/09/17 02:26:57;;;;;;;13.73;3.47;;;13.90;99.90;;;-147.18;100.00;67318.16;4975475;28;20047;-77
2022/09/17 02:30:31;;;;;;;13.43;3.30;;;13.90;99.90;;;-147.18;100.00;67318.16;4972033;28;20133;-77
2022/09/17 02:34:00;;;;;;;15.60;2.80;;;13.90;99.90;;;-147.18;100.00;67318.16;4971758;28;20049;-77
2022/09/17 02:37:28;;;;;;;11.80;2.67;;;14.00;99.90;;;-147.18;100.00;67318.16;4971744;28;20055;-77
2022/09/17 02:40:58;;;;;;;15.00;3.25;;;13.90;99.90;;;-147.18;100.00;67318.16;4971758;28;20046;-77
2022/09/17 02:44:33;;;;;;;16.23;3.70;;;13.90;99.90;;;-147.18;100.00;67318.16;4975322;28;20057;-77
2022/09/17 02:48:34;;;;;;;16.27;3.55;;;13.90;99.90;;;-147.18;100.00;67318.16;4986234;28;20046;-77
2022/09/17 02:52:32;;;;;;;10.45;3.13;;;13.90;99.90;;;-147.18;100.00;67318.16;4977193;28;20057;-77
2022/09/17 02:56:09;;;;;;;21.15;3.88;;;13.90;99.90;;;-147.18;100.00;67318.16;4979047;28;20043;-77
2022/09/17 02:59:46;;;;;;;19.67;3.60;;;13.80;99.90;;;-147.18;100.00;67318.16;4990957;28;20052;-77
2022/09/17 03:03:19;;;;;;;14.32;3.28;;;13.80;99.90;;;-147.18;100.00;67318.16;4952311;29;20062;-78
2022/09/17 03:06:46;;;;;;;15.98;3.47;;;13.80;99.90;;;-147.18;100.00;67318.16;4973518;28;20046;-77
2022/09/17 03:10:14;;;;;;;13.68;3.08;;;13.80;99.90;;;-147.18;100.00;67318.16;4988774;28;20042;-77
2022/09/17 03:13:40;;;;;;;13.25;2.70;;;13.80;99.90;;;-147.18;100.00;67318.16;4970764;28;20047;-77
2022/09/17 03:17:06;;;;;;;13.15;3.13;;;13.80;99.90;;;-147.18;100.00;67318.16;4980144;28;20491;-77
2022/09/17 03:20:32;;;;;;;11.35;2.58;;;13.70;99.90;;;-147.18;100.00;67318.16;4987495;28;20035;-77
2022/09/17 03:23:59;;;;;;;18.67;3.70;;;13.70;99.90;;;-147.18;100.00;67318.16;4956955;28;20102;-77
2022/09/17 03:27:26;;;;;;;15.27;2.70;;;13.70;99.90;;;-147.18;100.00;67318.16;4984399;28;20435;-77
2022/09/17 03:30:52;;;;;;;15.27;3.00;;;13.70;99.90;;;-147.18;100.00;67318.16;4981654;28;20049;-77
2022/09/17 03:34:18;;;;;;;17.92;3.72;;;13.70;99.90;;;-147.18;100.00;67318.16;4973601;28;20035;-77
2022/09/17 03:37:46;;;;;;;12.60;2.95;;;13.70;99.90;;;-147.18;100.00;67318.16;4985360;28;20418;-77
2022/09/17 03:41:12;;;;;;;15.93;3.80;;;13.80;99.90;;;-147.18;100.00;67318.16;4979558;28;20093;-77
2022/09/17 03:44:39;;;;;;;13.73;3.13;;;13.80;99.90;;;-147.18;100.00;67318.16;4971900;28;20123;-77
2022/09/17 03:48:05;;;;;;;15.13;3.35;;;13.80;99.90;;;-147.18;100.00;67318.16;4984279;28;20042;-77
2022/09/17 03:51:30;;;;;;;14.27;3.30;;;13.80;99.90;;;-147.18;100.00;67318.16;4969289;28;20043;-77
2022/09/17 03:54:56;;;;;;;15.35;3.90;;;13.80;99.90;;;-147.18;100.00;67318.16;4973411;28;20874;-78
2022/09/17 03:58:22;;;;;;;12.35;2.80;;;13.80;99.90;;;-147.18;100.00;67318.16;4970577;28;20045;-79
2022/09/17 04:01:49;;;;;;;14.85;3.33;;;13.80;99.90;;;-147.18;100.00;67318.16;4985386;28;20047;-83
2022/09/17 04:05:15;;;;;;;24.67;4.20;;;13.80;99.90;;;-147.18;100.00;67318.16;4971235;28;20038;-81
2022/09/17 04:08:42;;;;;;;15.05;2.90;;;13.80;99.90;;;-147.18;100.00;67318.16;4977782;28;20035;-88
2022/09/17 04:12:08;;;;;;;13.85;2.95;;;13.90;99.90;;;-147.18;100.00;67318.16;4965096;28;20078;-85
2022/09/17 04:15:33;;;;;;;10.32;2.75;;;13.90;99.90;;;-147.18;100.00;67318.16;4968997;28;20051;-86
2022/09/17 04:19:00;;;;;;;12.73;3.40;;;13.90;99.90;;;-147.18;100.00;67318.16;4975687;28;20039;-85
2022/09/17 04:22:26;;;;;;;15.52;3.13;;;13.90;99.90;;;-147.18;100.00;67318.16;4973999;28;20093;-85
2022/09/17 04:25:52;;;;;;;17.40;3.28;;;13.90;99.90;;;-147.18;100.00;67318.16;4973063;28;20046;-86
2022/09/17 04:29:18;;;;;;;10.52;2.42;;;13.80;99.90;;;-147.18;100.00;67318.16;4982115;28;20039;-85
2022/09/17 04:32:44;;;;;;;9.73;2.63;;;13.80;99.90;;;-147.18;100.00;67318.16;4973984;28;20175;-85
2022/09/17 04:36:12;;;;;;;14.75;3.45;;;13.90;99.90;;;-147.18;100.00;67318.16;4975066;28;20050;-85
2022/09/17 04:39:37;;;;;;;15.27;3.17;;;13.90;99.90;;;-147.18;100.00;67318.16;4987759;28;20485;-85
2022/09/17 04:43:03;;;;;;;14.07;3.50;;;13.90;99.90;;;-147.18;100.00;67318.16;4987831;28;20038;-88
2022/09/17 04:46:29;;;;;;;15.20;3.38;;;13.80;99.90;;;-147.18;100.00;67318.16;4972021;28;20543;-91
2022/09/17 04:49:55;;;;;;;21.92;3.90;;;13.80;99.90;;;-147.18;100.00;67318.16;4995152;28;20054;-88
2022/09/17 04:53:32;;;;;;;11.38;3.20;;;13.90;99.90;;;-147.18;100.00;67318.16;4957177;28;20069;-83
2022/09/17 04:57:10;;;;;;;14.43;3.22;;;13.90;99.90;;;-147.18;100.00;67318.16;4981015;28;20054;-82
2022/09/17 05:00:36;;;;;;;12.88;2.95;;;13.90;99.90;;;-147.18;100.00;67318.16;4973551;28;20121;-81
2022/09/17 05:04:02;;;;;;;11.23;2.60;;;13.90;99.90;;;-147.18;100.00;67318.16;4974124;28;20046;-82
2022/09/17 05:07:31;;;;;;;14.70;2.97;;;13.90;99.90;;;-147.18;100.00;67318.16;4985636;28;20050;-81
2022/09/17 05:10:57;;;;;;;16.38;3.03;;;13.90;99.90;;;-147.18;100.00;67318.16;4955050;28;20043;-79
2022/09/17 05:14:23;;;;;;;12.70;2.90;;;13.90;99.90;;;-147.18;100.00;67318.16;4976923;28;20074;-81
2022/09/17 05:17:49;;;;;;;15.27;2.85;;;13.90;99.90;;;-147.18;100.00;67318.16;4988819;28;20065;-82
2022/09/17 05:21:15;;;;;;;15.30;2.90;;;13.90;99.90;;;-147.18;100.00;67318.16;4954022;28;20119;-81
2022/09/17 05:24:42;;;;;;;15.43;3.33;;;13.90;99.90;;;-147.18;100.00;67318.16;4972545;28;21902;-82
2022/09/17 05:28:08;;;;;;;11.57;3.10;;;13.90;99.90;;;-147.18;100.00;67318.16;4970107;28;20039;-83
2022/09/17 05:31:34;;;;;;;16.25;2.90;;;13.90;99.90;;;-147.18;100.00;67318.16;4972712;28;20043;-83
2022/09/17 05:34:59;;;;;;;13.98;3.13;;;13.90;99.90;;;-147.18;100.00;67318.16;4980718;28;20064;-83
2022/09/17 05:38:25;;;;;;;15.02;2.67;;;13.80;99.90;;;-147.18;100.00;67318.16;4973048;28;20050;-83
2022/09/17 05:41:52;;;;;;;16.42;3.20;;;13.90;99.90;;;-147.18;100.00;67318.16;4972578;28;20045;-83
2022/09/17 05:45:18;;;;;;;16.88;3.20;;;13.90;99.90;;;-147.18;100.00;67318.16;4979870;28;20043;-83
2022/09/17 05:48:43;;;;;;;19.35;3.40;;;13.90;99.90;;;-147.18;100.00;67318.16;4972912;28;20492;-82
2022/09/17 05:52:09;;;;;;;19.17;3.30;;;13.90;99.90;;;-147.18;100.00;67318.16;4972870;28;20039;-83
2022/09/17 05:55:35;;;;;;;18.77;3.45;;;14.00;99.90;;;-147.18;100.00;67318.16;4979298;28;20049;-83
2022/09/17 05:59:08;;;;;;;18.45;3.17;;;14.00;99.90;;;-147.18;100.00;67318.16;4972700;28;20043;-85
2022/09/17 06:02:33;;;;;;;16.58;3.58;;;14.00;99.90;;;-147.18;100.00;67318.16;4972706;28;20113;-87
2022/09/17 06:05:59;;;;;;;19.13;3.55;;;13.90;99.90;;;-147.18;100.00;67318.16;4980584;28;20043;-85
2022/09/17 06:09:27;;;;;;;15.10;2.90;;;14.00;99.90;;;-147.18;100.00;67318.16;4992027;28;20116;-86
2022/09/17 06:12:55;;;;;;;13.65;2.70;;;14.00;99.90;;;-147.18;100.00;67318.16;4992013;28;20491;-86
2022/09/17 06:16:23;;;;;;;12.40;2.72;;;14.00;99.90;;;-147.18;100.00;67318.16;4972118;28;20047;-87
2022/09/17 06:19:49;;;;;;;17.30;3.50;;;14.00;99.90;;;-147.18;100.00;67318.16;4971402;28;20042;-85
2022/09/17 06:23:17;;;;;;;22.67;3.35;;;14.00;99.90;;;-147.18;100.00;67318.16;4987322;28;20050;-86
2022/09/17 06:26:42;;;;;;;18.33;2.70;;;14.00;99.90;;;-147.18;100.00;67318.16;4974604;28;20057;-84
2022/09/17 06:30:08;;;;;;;14.77;3.13;;;14.10;99.90;;;-147.18;100.00;67318.16;4971989;28;20046;-84
2022/09/17 06:33:36;;;;;;;15.38;2.75;;;14.10;99.90;;;-147.18;100.00;67318.16;4971246;28;20050;-84
2022/09/17 06:37:03;;;;;;;14.52;3.25;;;14.10;99.90;;;-147.18;100.00;67318.16;4995074;28;20050;-83
2022/09/17 06:40:29;;;;;;;21.65;2.30;;;14.00;99.90;;;-147.18;100.00;67318.16;4991362;28;20049;-83
2022/09/17 06:43:56;;;;;;;13.40;2.67;;;14.00;99.90;;;-147.18;100.00;67318.16;5007299;28;20065;-81
2022/09/17 06:47:23;;;;;;;17.10;2.78;;;14.10;99.90;;;-147.18;100.00;67318.16;5002225;28;20046;-81
2022/09/17 06:50:53;;;;;;;12.75;2.40;;;14.10;99.90;;;-147.18;100.00;67318.16;5010980;28;20041;-81
2022/09/17 06:54:18;;;;;;;11.85;2.60;;;14.10;99.90;;;-147.18;100.00;67318.16;5006192;28;20044;-81
2022/09/17 06:57:45;;;;;;;15.40;3.33;;;14.10;99.90;;;-147.18;100.00;67318.16;4992978;28;20140;-79
2022/09/17 07:01:13;;;;;;;19.08;3.22;;;14.10;99.90;;;-147.18;100.00;67318.16;4986211;28;20045;-79
2022/09/17 07:04:40;;;;;;;16.35;3.10;;;14.10;99.90;;;-147.18;100.00;67318.16;4992044;28;20077;-82
2022/09/17 07:08:07;;;;;;;15.00;2.97;;;14.20;99.90;;;-147.18;100.00;67318.16;4990431;28;20038;-79
2022/09/17 07:11:32;;;;;;;12.80;2.97;;;14.20;99.90;;;-147.18;100.00;67318.16;4992183;28;20042;-83
2022/09/17 07:14:58;;;;;;;16.10;3.00;;;14.20;99.90;;;-147.18;100.00;67318.16;4987359;28;20376;-78
2022/09/17 07:18:24;;;;;;;13.32;3.03;;;14.30;99.90;;;-147.18;100.00;67318.16;5001710;28;20050;-78
2022/09/17 07:21:53;;;;;;;18.02;2.95;;;14.30;99.90;;;-147.18;100.00;67318.16;5004429;28;20435;-78
2022/09/17 07:25:20;;;;;;;15.20;2.85;;;14.30;99.90;;;-147.18;100.00;67318.16;4989714;28;20066;-78
2022/09/17 07:28:45;;;;;;;12.30;2.80;;;14.30;99.90;;;-147.18;100.00;67318.16;4989732;28;20128;-77
2022/09/17 07:32:12;;;;;;;19.58;2.92;;;14.50;99.90;;;-147.18;100.00;67318.16;4989542;28;20495;-77
2022/09/17 07:35:38;;;;;;;17.15;3.15;;;14.50;99.90;;;-147.18;100.00;67318.16;4988774;28;20042;-77
2022/09/17 07:39:04;;;;;;;15.63;2.72;;;14.50;99.90;;;-147.18;100.00;67318.16;4991232;28;20084;-78
2022/09/17 07:42:31;;;;;;;12.98;2.97;;;14.90;99.90;;;-147.18;100.00;67318.16;4992826;28;20041;-82
2022/09/17 07:45:58;;;;;;;12.82;2.88;;;14.80;99.90;;;-147.18;100.00;67318.16;4987111;28;20057;-83
2022/09/17 07:49:24;;;;;;;14.15;2.78;;;14.90;99.90;;;-147.18;100.00;67318.16;4989624;28;20042;-76
2022/09/17 07:52:59;;;;;;;13.13;2.75;;;14.90;99.90;;;-147.18;100.00;67318.16;4990036;28;20051;-76
2022/09/17 07:56:26;;;;;;;13.90;3.05;;;14.90;99.90;;;-147.18;100.00;67318.16;4989212;28;20054;-76
2022/09/17 07:59:53;;;;;;;15.98;2.92;;;15.00;99.90;;;-147.18;100.00;67318.16;4989809;28;20050;-76
2022/09/17 08:03:24;;;;;;;10.75;2.67;;;15.00;99.90;;;-147.18;100.00;67318.16;4990171;28;20081;-76
2022/09/17 08:06:50;;;;;;;9.50;2.10;;;15.00;99.90;;;-147.18;100.00;67318.16;4988798;28;20495;-76
2022/09/17 08:10:20;;;;;;;9.80;2.45;;;15.10;99.90;;;-147.18;100.00;67318.16;4990023;28;20656;-76
2022/09/17 08:13:47;;;;;;;10.02;2.25;;;15.20;99.90;;;-147.18;100.00;67318.16;4990167;28;20045;-76
2022/09/17 08:17:15;;;;;;;8.98;2.08;;;15.20;99.90;;;-147.18;100.00;67318.16;4989437;28;20061;-76
2022/09/17 08:20:40;;;;;;;9.48;2.25;;;15.30;99.90;;;-147.18;100.00;67318.16;4989564;28;20499;-76
2022/09/17 08:24:08;;;;;;;9.02;2.47;;;15.30;99.90;;;-147.18;100.00;67318.16;4988815;28;20049;-76
2022/09/17 08:27:34;;;;;;;9.93;2.30;;;15.30;99.90;;;-147.18;100.00;67318.16;4976673;28;20035;-76
2022/09/17 08:31:00;;;;;;;12.90;2.80;;;15.40;99.90;;;-147.18;100.00;67318.16;4989197;28;20050;-76
2022/09/17 08:34:29;;;;;;;9.05;2.17;;;15.40;99.90;;;-147.18;100.00;67318.16;4989621;28;20118;-81
2022/09/17 08:37:55;;;;;;;8.95;2.50;;;15.50;99.90;;;-147.18;100.00;67318.16;4985526;28;20074;-76
2022/09/17 08:41:25;;;;;;;10.48;2.25;;;15.60;99.90;;;-147.18;100.00;67318.16;4988908;28;20045;-76
2022/09/17 08:44:59;;;;;;;10.77;2.47;;;15.70;99.90;;;-147.18;100.00;67318.16;4989720;28;20046;-76
2022/09/17 08:48:34;;;;;;;9.57;2.10;;;15.70;99.90;;;-147.18;100.00;67318.16;4989060;28;20045;-76
2022/09/17 08:52:18;;;;;;;10.45;2.10;;;15.60;99.90;;;-147.18;100.00;67318.16;4970450;28;20053;-76
2022/09/17 08:55:54;;;;;;;10.30;1.90;;;15.80;99.90;;;-147.18;100.00;67318.16;4988540;28;20129;-76
2022/09/17 08:59:50;;;;;;;10.23;1.90;;;15.80;99.90;;;-147.18;100.00;67318.16;4971446;28;20082;-79
2022/09/17 09:03:30;;;;;;;14.32;2.35;;;15.90;99.90;;;-147.18;100.00;67318.16;4989816;28;20043;-77
2022/09/17 09:07:01;;;;;;;15.35;1.98;;;15.90;99.90;;;-147.18;100.00;67318.16;4988134;28;20064;-76
2022/09/17 09:10:32;;;;;;;7.10;1.50;;;15.90;99.90;;;-147.18;100.00;67318.16;4983395;28;20486;-78
2022/09/17 09:14:01;;;;;;;8.48;1.83;;;15.90;99.90;;;-147.18;100.00;67318.16;4988276;28;20129;-76
2022/09/17 09:17:34;;;;;;;8.55;1.45;;;15.90;99.90;;;-147.18;100.00;67318.16;4988562;28;20050;-76
2022/09/17 09:21:10;;;;;;;9.15;1.50;;;16.00;99.90;;;-147.18;100.00;67318.16;4987976;28;20524;-77
2022/09/17 09:24:46;;;;;;;9.40;1.30;;;16.10;99.90;;;-147.18;100.00;67318.16;4992641;28;20046;-77
2022/09/17 09:28:22;;;;;;;7.45;1.30;;;16.10;99.50;;;-147.18;100.00;67318.16;4992181;28;20484;-77
2022/09/17 09:32:08;;;;;;;8.32;1.60;;;16.20;99.90;;;-147.18;100.00;67318.16;4992515;28;20129;-76
2022/09/17 09:35:36;;;;;;;8.10;1.60;;;16.20;98.00;;;-147.18;100.00;67318.16;4972601;28;20462;-76
2022/09/17 09:39:15;;;;;;;9.80;1.52;;;16.20;97.40;;;-147.18;100.00;67318.16;4991518;28;20042;-76
2022/09/17 09:42:45;;;;;;;6.85;1.42;;;16.20;97.50;;;-147.18;100.00;67318.16;4991350;28;20105;-75
2022/09/17 09:46:26;;;;;;;5.78;1.00;;;16.20;96.90;;;-147.18;100.00;67318.16;4988589;28;20113;-76
2022/09/17 09:50:08;;;;;;;6.20;1.13;;;16.20;97.30;;;-147.18;100.00;67318.16;4989387;28;20426;-77
2022/09/17 09:53:55;;;;;;;3.55;1.00;;;16.30;98.00;;;-147.18;100.00;67318.16;4972540;28;20061;-76
2022/09/17 09:57:34;;;;;;;7.53;1.48;;;16.40;97.80;;;-147.18;100.00;67318.16;4983820;28;20046;-76
2022/09/17 10:01:27;;;;;;;5.75;1.13;;;16.40;96.70;;;-147.18;100.00;67318.16;4990687;28;20038;-77
2022/09/17 10:04:52;;;;;;;;;;;16.30;96.40;;;-147.18;100.00;67318.16;4977468;28;20046;-76
2022/09/17 10:08:18;;;;;;;8.23;1.65;;;16.30;97.50;;;-147.18;100.00;67318.16;4988044;28;19995;-77
2022/09/17 10:12:01;;;;;;;9.23;1.73;;;16.30;99.90;;;-147.18;100.00;67318.16;4968227;28;20132;-77
2022/09/17 10:15:29;;;;;;;6.97;1.15;;;16.20;99.90;;;-147.18;100.00;67318.16;4983979;28;20430;-76
2022/09/17 10:19:19;;;;;;;4.50;1.02;;;16.20;99.90;;;-147.18;100.00;67318.16;4989791;28;20046;-76
2022/09/17 10:22:45;;;;;;;10.45;1.40;;;16.10;99.90;;;-147.18;100.00;67318.16;4988526;28;20053;-76
2022/09/17 10:26:29;;;;;;;7.47;1.48;;;16.00;99.90;;;-147.18;100.00;67318.16;4991169;28;20089;-76
2022/09/17 10:30:03;;;;;;;8.07;1.25;;;16.10;99.90;;;-147.18;100.00;67318.16;4988458;28;20068;-76
2022/09/17 10:33:30;;;;;;;6.65;1.58;;;16.10;99.90;;;-147.18;100.00;67318.16;4992320;28;20049;-75
2022/09/17 10:37:01;;;;;;;6.85;1.27;;;16.20;99.90;;;-147.18;100.00;67318.16;4990356;28;20159;-77
2022/09/17 10:40:32;;;;;;;5.95;1.45;;;16.10;99.90;;;-147.18;100.00;67318.16;4991105;28;20054;-76
2022/09/17 10:44:23;;;;;;;4.47;1.20;;;16.20;99.90;;;-147.18;100.00;67318.16;5002490;28;20046;-75
2022/09/17 10:51:43;;;;;;;8.20;1.65;;;16.20;99.90;;;-147.18;100.00;67318.16;4986201;28;20058;-76
2022/09/17 10:55:46;;;;;;;7.60;1.42;;;16.20;99.90;;;-147.18;100.00;67318.16;4989045;28;20049;-76
2022/09/17 10:59:26;;;;;;;;;;;16.20;99.90;;;-147.18;100.00;67318.16;4994531;28;20522;-77
2022/09/17 11:03:24;;;;;;;9.40;1.67;;;16.20;99.90;;;-147.18;100.00;67318.16;4996896;28;19940;-76
2022/09/17 11:07:42;;;;;;;5.72;1.50;;;16.20;99.90;;;-147.18;100.00;67318.16;4987872;28;20495;-76
2022/09/17 11:11:20;;;;;;;12.65;2.20;;;16.10;99.90;;;-147.18;100.00;67318.16;5001585;28;20129;-77
2022/09/17 11:15:03;;;;;;;8.10;1.60;;;16.00;99.90;;;-147.18;100.00;67318.16;4988327;28;20043;-77
2022/09/17 11:19:16;;;;;;;10.50;1.73;;;15.90;99.90;;;-147.18;100.00;67318.16;4994523;28;20533;-76
2022/09/17 11:23:00;;;;;;;8.18;1.33;;;15.80;99.90;;;-147.18;100.00;67318.16;4964826;28;20374;-75
2022/09/17 11:26:42;;;;;;;4.38;1.10;;;15.70;99.90;;;-147.18;100.00;67318.16;4994148;28;20708;-75
2022/09/17 11:30:33;;;;;;;4.43;1.10;;;15.50;99.90;;;-147.18;100.00;67318.16;4989321;28;20675;-76
2022/09/17 11:34:29;;;;;;;6.05;1.20;;;15.40;99.90;;;-147.18;100.00;67318.16;4990183;28;20395;-76
2022/09/17 11:38:07;;;;;;;2.83;0.70;;;15.30;99.90;;;-147.18;100.00;67318.16;4983076;28;20046;-75
2022/09/17 11:41:46;;;;;;;3.57;0.70;;;15.30;99.90;;;-147.18;100.00;67318.16;4988496;28;20055;-76
2022/09/17 11:45:22;;;;;;;2.50;0.65;;;15.20;99.90;;;-147.18;100.00;67318.16;4978988;28;20758;-75
2022/09/17 11:49:00;;;;;;;2.78;0.70;;;15.20;99.90;;;-147.18;100.00;67318.16;4969150;28;20050;-75
2022/09/17 11:52:34;;;;;;;4.57;0.77;;;15.20;99.90;;;-147.18;100.00;67318.16;4954495;28;20326;-75
2022/09/17 11:56:08;;;;;;;3.53;0.70;;;15.20;99.90;;;-147.18;100.00;67318.16;4979733;28;20038;-76
2022/09/17 11:59:43;;;;;;;2.03;0.50;;;15.20;99.90;;;-147.18;100.00;67318.16;4994414;28;20048;-76
2022/09/17 12:03:22;;;;;;;1.58;0.50;;;15.20;99.90;;;-147.18;100.00;67318.16;4965983;28;20057;-76
2022/09/17 12:06:55;;;;;;;2.05;0.68;;;15.20;99.90;;;-147.18;100.00;67318.16;4986673;28;20043;-76
2022/09/17 12:10:44;;;;;;;3.45;0.85;;;15.30;99.90;;;-147.18;100.00;67318.16;4984578;28;20061;-76
2022/09/17 12:14:20;;;;;;;5.13;0.95;;;15.30;99.90;;;-147.18;100.00;67318.16;4960231;28;20065;-76
2022/09/17 12:17:52;;;;;;;8.20;1.10;;;15.40;99.90;;;-147.18;100.00;67318.16;4989068;28;20096;-76
2022/09/17 12:21:29;;;;;;;4.38;1.00;;;15.40;99.90;;;-147.18;100.00;67318.16;4984291;28;20080;-75
2022/09/17 12:25:01;;;;;;;6.53;1.35;;;15.40;99.90;;;-147.18;100.00;67318.16;4982208;28;20058;-77
2022/09/17 12:28:39;;;;;;;9.30;1.70;;;15.40;99.90;;;-147.18;100.00;67318.16;4969230;28;20136;-75
2022/09/17 12:32:18;;;;;;;5.50;1.15;;;15.40;99.90;;;-147.18;100.00;67318.16;4983057;28;20047;-76
2022/09/17 12:36:05;;;;;;;5.93;1.10;;;15.50;99.90;;;-147.18;100.00;67318.16;4981786;28;20061;-76
2022/09/17 12:40:15;;;;;;;7.75;1.73;;;15.40;99.90;;;-147.18;100.00;67318.16;4994916;28;20460;-76
2022/09/17 12:44:12;;;;;;;5.50;1.15;;;15.40;99.90;;;-147.18;100.00;67318.16;5024035;23;20088;-75
2022/09/17 12:48:11;;;;;;;7.47;1.40;;;15.50;99.90;;;-147.18;100.00;67318.16;5024178;28;20127;-76
2022/09/17 12:51:54;;;;;;;4.80;0.93;;;15.50;99.90;;;-147.18;100.00;67318.16;5023464;28;20037;-80
2022/09/17 12:56:02;;;;;;;3.95;1.05;;;15.60;99.90;;;-147.18;100.00;67318.16;5019221;28;20569;-76
2022/09/17 12:59:44;;;;;;;4.80;1.20;;;15.60;99.90;;;-147.18;100.00;67318.16;5000662;28;20153;-76
2022/09/17 13:03:21;;;;;;;5.22;1.27;;;15.60;99.90;;;-147.18;100.00;67318.16;5026176;28;20037;-76
2022/09/17 13:07:29;;;;;;;5.18;1.05;;;15.60;99.90;;;-147.18;100.00;67318.16;5003557;28;20049;-78
2022/09/17 13:12:03;;;;;;;4.97;1.33;;;15.60;99.90;;;-147.18;100.00;67318.16;5005184;28;20120;-76
2022/09/17 13:15:55;;;;;;;5.47;1.38;;;15.70;99.90;;;-147.18;100.00;67318.16;4962531;28;20077;-76
2022/09/17 13:19:30;;;;;;;3.78;1.15;;;15.70;99.90;;;-147.18;100.00;67318.16;4996254;28;20417;-76
2022/09/17 13:23:01;;;;;;;6.80;1.75;;;15.70;99.90;;;-147.18;100.00;67318.16;5005406;28;20410;-76
2022/09/17 13:26:34;;;;;;;5.10;1.40;;;15.70;99.90;;;-147.18;100.00;67318.16;5000293;28;20074;-76
2022/09/17 13:30:00;;;;;;;8.70;1.80;;;15.80;99.90;;;-147.18;100.00;67318.16;5003824;28;20045;-76
2022/09/17 13:33:49;;;;;;;6.53;1.63;;;15.80;99.90;;;-147.18;100.00;67318.16;5001861;28;20034;-76
2022/09/17 13:37:55;;;;;;;7.30;1.60;;;15.90;99.90;;;-147.18;100.00;67318.16;5000227;28;20684;-76
2022/09/17 13:41:25;;;;;;;10.05;1.45;;;15.90;99.90;;;-147.18;100.00;67318.16;5003218;28;20064;-76
2022/09/17 13:44:53;;;;;;;9.23;1.58;;;16.00;99.90;;;-147.18;100.00;67318.16;5003738;28;20038;-76
2022/09/17 13:48:24;;;;;;;11.60;1.60;;;16.00;99.90;;;-147.18;100.00;67318.16;5005151;28;20049;-76
2022/09/17 13:51:50;;;;;;;7.75;1.80;;;15.90;99.90;;;-147.18;100.00;67318.16;5002836;28;20041;-76
2022/09/17 13:55:35;;;;;;;10.65;2.00;;;15.90;99.90;;;-147.18;100.00;67318.16;5014763;28;20525;-76
2022/09/17 13:59:05;;;;;;;6.93;1.48;;;15.70;99.90;;;-147.18;100.00;67318.16;5015305;28;20041;-76
2022/09/17 14:03:17;;;;;;;7.22;1.40;;;15.50;99.90;;;-147.18;100.00;67318.16;5004042;28;20057;-76
2022/09/17 14:06:52;;;;;;;9.03;1.40;;;15.30;99.90;;;-147.18;100.00;67318.16;4983506;28;20046;-76
2022/09/17 14:10:52;;;;;;;7.45;1.35;;;15.20;99.90;;;-147.18;100.00;67318.16;5004726;28;20304;-76
2022/09/17 14:14:48;;;;;;;5.78;1.10;;;15.10;99.90;;;-147.18;100.00;67318.16;4959860;28;20054;-76
2022/09/17 14:18:58;;;;;;;6.88;1.20;;;15.10;99.90;;;-147.18;100.00;67318.16;5002075;28;20111;-76
2022/09/17 14:22:30;;;;;;;5.93;1.38;;;15.10;99.90;;;-147.18;100.00;67318.16;5003337;28;20046;-78
2022/09/17 14:25:57;;;;;;;5.32;1.10;;;15.10;99.90;;;-147.18;100.00;67318.16;5019703;28;20046;-77
2022/09/17 14:29:45;;;;;;;6.60;1.27;;;15.00;99.90;;;-147.18;100.00;67318.16;5023464;28;20034;-77
2022/09/17 14:33:16;;;;;;;7.28;1.30;;;15.00;99.90;;;-147.18;100.00;67318.16;5015907;28;20042;-77
2022/09/17 14:36:43;;;;;;;5.22;1.83;;;15.00;99.90;;;-147.18;100.00;67318.16;5002220;28;20101;-77